AirNav   Bose ProFlight Series 2 Headset
 
 1132 users online  

FD64 Bay Pines Veterans Administration Heliport
St Petersburg, Florida, USA

GOING TO ST PETERSBURG?


FAA INFORMATION EFFECTIVE 02 JANUARY 2020

Location

FAA Identifier: FD64
Lat/Long: 27-48-37.4100N 082-46-56.5000W
27-48.623500N 082-46.941667W
27.8103917,-82.7823611
(estimated)
Elevation: 9 ft. / 3 m (estimated)
Variation: 02W (1986)
From city: 7 miles NE of ST PETERSBURG, FL
Time zone: UTC -5 (UTC -4 during Daylight Saving Time)
Zip code: 33708

Heliport Operations

Heliport use: Private use. Permission required prior to landing
Activation date: 03/1986
Control tower: no
ARTCC: MIAMI CENTER
FSS: SAINT PETERSBURG FLIGHT SERVICE STATION
Attendance: UNATNDD
Wind indicator: yes
Segmented circle: no

Heliport Communications

WX ASOS at PIE (8 nm NE): PHONE 727-531-3456
WX ASOS at SPG (9 nm E): 118.875 (727-821-4334)
WX AWOS-3P at CLW (10 nm N): 119.225 (727-449-2184)
WX ASOS at TPA (17 nm NE): PHONE 813-873-7228
WX AWOS-3 at TPF (19 nm E): 118.925 (813-251-6824)

Nearby radio navigation aids

VOR radial/distance  VOR name  Freq  Var
PIEr227/7.8ST PETERSBURG VORTAC116.4005W
SRQr339/26.9SARASOTA VOR/DME117.0005W

 
NDB name  Hdg/Dist  Freq  Var  ID
CAPOK206/11.836005WPI .--. ..

Heliport Services

Runway Information

Helipad H2

Dimensions: 80 x 56 ft. / 24 x 17 m
Surface: asphalt
GROUND LEVEL.
Latitude: 27-48.656667N
Longitude: 082-46.784000W
Elevation: 9.0 ft.
Traffic pattern: leftleft
Markings: basic

Helipad H1

Dimensions: 50 x 50 ft. / 15 x 15 m
Surface: concrete
ROOFTOP.
Operational restrictions: PRIMARY HELIPAD.
Latitude: 27-48.623500N
Longitude: 082-46.991667W
Elevation: 9.0 ft.
Traffic pattern: leftleft
Markings: NSTD

Heliport Ownership and Management from official FAA records

Ownership: Publicly-owned
Owner: BAY PINES VAMC
10,000 BAY PINES BLVD
BAY PINES, FL 33744
Phone 727-398-6661
Manager: HEATHER BRAUER
PO BOX 5005
BAY PINES, FL 33744
Phone 727-398-6661
EXT: 10495

Additional Remarks

FOR CD CTC TAMPA APCH AT 813-878-2528

Instrument Procedures

There are no published instrument procedures at FD64.

Some nearby airports with instrument procedures:

KPIE - St Pete-Clearwater International Airport (8 nm NE)
KSPG - Albert Whitted Airport (9 nm E)
KCLW - Clearwater Air Park (10 nm N)
KMCF - MacDill Air Force Base (14 nm E)
KTPA - Tampa International Airport (17 nm NE)
KTPF - Peter O Knight Airport (19 nm E)
 
Loc | Ops | Rwys | IFR | FBO | Links
Com | Nav | Svcs | Stats | Notes


 
Area around FD64 (Bay Pines Veterans Administration Heliport)
 
Road maps at: MapQuest Bing Google
 
Aerial photo
No photo
 
Sectional chart

 
Airport distance calculator
Flying to Bay Pines Veterans Administration Heliport? Find the distance to fly.

From to FD64

Sunrise and sunset
Times for 21-Jan-2020
 Local
(UTC-5)
 Zulu
(UTC)
Morning civil twilight06:5811:58
Sunrise07:2312:23
Sunset18:0223:02
Evening civil twilight18:2723:27

Current date and time
Zulu (UTC)  22-Jan-2020 02:49:05
Local (UTC-5)  21-Jan-2020 21:49:05
 
METAR
KPIE 
8nm NE 
220153Z 01015G25KT 10SM CLR 08/M03 A3026 RMK AO2 SLP247 T00831028
KSPG 
8nm E 
220153Z AUTO 01018KT 10SM CLR 09/00 A3024 RMK AO2 SLP239 T00890000 TSNO
KCLW 
10nm N 
220235Z AUTO 02008G14KT 10SM CLR 06/M06 A3027 RMK AO2
KMCF 
14nm E 
220156Z AUTO 03011G17KT 10SM CLR 07/M06 A3025 RMK AO2 SLPNO T00671060 FZRANO $
KTPA 
16nm NE 
220153Z 01018G24KT 10SM FEW150 09/M02 A3027 RMK AO2 SLP250 T00891022
KTPF 
19nm E 
220235Z AUTO 02010G19KT 10SM CLR 07/M02 A3027 RMK AO2
TAF
KPIE 
8nm NE 
211728Z 2118/2218 35015G20KT P6SM FEW030 FM221500 01010G15KT P6SM SKC
KMCF 
14nm E 
220100Z 2201/2307 03010G15KT 9999 FEW010 QNH3015INS BECMG 2217/2218 36015G20KT 9999 SCT050 QNH3009INS TX15/2220Z TN01/2211Z
KTPA 
16nm NE 
212100Z 2121/2224 35015G20KT P6SM FEW030 FM220000 36012G17KT P6SM SKC FM221500 02010G15KT P6SM SKC
NOTAMs
Click for the latest NOTAMs
NOTAMs are issued by the DoD/FAA and will open in a separate window not controlled by AirNav.

 

 
 

Would you like to see your business listed on this page?

 If your business provides an interesting product or service to pilots, flight crews, aircraft, or users of the Bay Pines Veterans Administration Heliport, you should consider listing it here.  To start the listing process, click on the button below
 
Add a business
 

Other Pages about Bay Pines Veterans Administration Heliport

Update a link
 
Copyright © AirNav, LLC. All rights reserved. Privacy Policy  Contact